sensor_id;sensor_type;location;lat;lon;timestamp;pressure;altitude;pressure_sealevel;temperature;humidity
68871;BME280;55906;52.278;6.808;2023-05-19T00:01:59;102564.84;;;10.69;64.62
68871;BME280;55906;52.278;6.808;2023-05-19T00:04:26;102570.84;;;10.67;64.50
68871;BME280;55906;52.278;6.808;2023-05-19T00:06:53;102571.44;;;10.61;64.52
68871;BME280;55906;52.278;6.808;2023-05-19T00:09:21;102569.47;;;10.57;65.03
68871;BME280;55906;52.278;6.808;2023-05-19T00:11:49;102569.28;;;10.54;65.63
68871;BME280;55906;52.278;6.808;2023-05-19T00:14:16;102568.97;;;10.48;66.25
68871;BME280;55906;52.278;6.808;2023-05-19T00:16:43;102554.81;;;10.46;65.40
68871;BME280;55906;52.278;6.808;2023-05-19T00:19:11;102567.81;;;10.43;65.87
68871;BME280;55906;52.278;6.808;2023-05-19T00:21:38;102563.09;;;10.37;66.88
68871;BME280;55906;52.278;6.808;2023-05-19T00:24:05;102564.66;;;10.34;66.83
68871;BME280;55906;52.278;6.808;2023-05-19T00:26:31;102559.06;;;10.27;67.88
68871;BME280;55906;52.278;6.808;2023-05-19T00:28:59;102559.06;;;10.27;68.12
68871;BME280;55906;52.278;6.808;2023-05-19T00:31:26;102564.00;;;10.21;71.15
68871;BME280;55906;52.278;6.808;2023-05-19T00:33:53;102560.53;;;10.22;67.86
68871;BME280;55906;52.278;6.808;2023-05-19T00:36:19;102557.53;;;10.16;68.95
68871;BME280;55906;52.278;6.808;2023-05-19T00:38:46;102557.47;;;10.15;68.85
68871;BME280;55906;52.278;6.808;2023-05-19T00:41:13;102564.44;;;10.14;68.47
68871;BME280;55906;52.278;6.808;2023-05-19T00:43:39;102565.91;;;10.09;69.33
68871;BME280;55906;52.278;6.808;2023-05-19T00:46:07;102560.56;;;10.08;68.99
68871;BME280;55906;52.278;6.808;2023-05-19T00:48:35;102555.88;;;10.02;69.75
68871;BME280;55906;52.278;6.808;2023-05-19T00:51:02;102556.72;;;10.01;69.53
68871;BME280;55906;52.278;6.808;2023-05-19T00:53:31;102562.06;;;10.03;69.22
68871;BME280;55906;52.278;6.808;2023-05-19T00:55:59;102548.66;;;9.98;69.70
68871;BME280;55906;52.278;6.808;2023-05-19T00:58:26;102552.91;;;9.96;69.89
68871;BME280;55906;52.278;6.808;2023-05-19T01:00:55;102547.50;;;9.93;70.14
68871;BME280;55906;52.278;6.808;2023-05-19T01:03:29;102555.03;;;9.87;71.98
68871;BME280;55906;52.278;6.808;2023-05-19T01:05:57;102556.59;;;9.83;71.63
68871;BME280;55906;52.278;6.808;2023-05-19T01:08:26;102550.50;;;9.84;70.76
68871;BME280;55906;52.278;6.808;2023-05-19T01:10:53;102542.38;;;9.80;71.76
68871;BME280;55906;52.278;6.808;2023-05-19T01:13:19;102544.00;;;9.78;71.54
68871;BME280;55906;52.278;6.808;2023-05-19T01:15:57;102538.03;;;9.80;73.12
68871;BME280;55906;52.278;6.808;2023-05-19T01:18:33;102545.00;;;9.80;72.04
68871;BME280;55906;52.278;6.808;2023-05-19T01:21:23;102537.69;;;9.74;72.39
68871;BME280;55906;52.278;6.808;2023-05-19T01:24:00;102536.59;;;9.71;73.40
68871;BME280;55906;52.278;6.808;2023-05-19T01:26:55;102539.88;;;9.67;75.19
68871;BME280;55906;52.278;6.808;2023-05-19T01:29:41;102542.50;;;9.67;74.74
68871;BME280;55906;52.278;6.808;2023-05-19T01:32:10;102534.63;;;9.67;72.20
68871;BME280;55906;52.278;6.808;2023-05-19T01:34:41;102535.28;;;9.62;73.16
68871;BME280;55906;52.278;6.808;2023-05-19T01:37:08;102532.56;;;9.61;73.26
68871;BME280;55906;52.278;6.808;2023-05-19T01:39:36;102534.03;;;9.56;75.89
68871;BME280;55906;52.278;6.808;2023-05-19T01:42:03;102531.38;;;9.56;73.89
68871;BME280;55906;52.278;6.808;2023-05-19T01:44:32;102530.50;;;9.55;73.69
68871;BME280;55906;52.278;6.808;2023-05-19T01:46:59;102539.00;;;9.51;74.45
68871;BME280;55906;52.278;6.808;2023-05-19T01:49:27;102535.41;;;9.49;73.90
68871;BME280;55906;52.278;6.808;2023-05-19T01:51:55;102538.75;;;9.47;74.41
68871;BME280;55906;52.278;6.808;2023-05-19T01:54:22;102541.13;;;9.42;75.29
68871;BME280;55906;52.278;6.808;2023-05-19T01:56:52;102534.97;;;9.42;75.26
68871;BME280;55906;52.278;6.808;2023-05-19T01:59:30;102539.94;;;9.37;74.69
68871;BME280;55906;52.278;6.808;2023-05-19T02:02:01;102553.00;;;9.36;75.26
68871;BME280;55906;52.278;6.808;2023-05-19T02:04:35;102552.09;;;9.35;75.95
68871;BME280;55906;52.278;6.808;2023-05-19T02:07:12;102542.22;;;9.31;76.64
68871;BME280;55906;52.278;6.808;2023-05-19T02:09:51;102549.09;;;9.29;76.21
68871;BME280;55906;52.278;6.808;2023-05-19T02:12:24;102539.25;;;9.25;76.42
68871;BME280;55906;52.278;6.808;2023-05-19T02:14:58;102546.31;;;9.26;76.25
68871;BME280;55906;52.278;6.808;2023-05-19T02:17:26;102547.94;;;9.24;75.88
68871;BME280;55906;52.278;6.808;2023-05-19T02:19:59;102543.31;;;9.20;76.74
68871;BME280;55906;52.278;6.808;2023-05-19T02:22:26;102545.75;;;9.17;76.07
68871;BME280;55906;52.278;6.808;2023-05-19T02:24:52;102536.91;;;9.15;76.23
68871;BME280;55906;52.278;6.808;2023-05-19T02:27:20;102534.28;;;9.15;76.41
68871;BME280;55906;52.278;6.808;2023-05-19T02:29:47;102541.16;;;9.13;76.31
68871;BME280;55906;52.278;6.808;2023-05-19T02:32:14;102534.00;;;9.10;76.02
68871;BME280;55906;52.278;6.808;2023-05-19T02:34:40;102529.66;;;9.11;76.64
68871;BME280;55906;52.278;6.808;2023-05-19T02:37:11;102521.28;;;9.03;78.21
68871;BME280;55906;52.278;6.808;2023-05-19T02:39:38;102520.56;;;9.06;76.82
68871;BME280;55906;52.278;6.808;2023-05-19T02:42:05;102522.19;;;9.04;76.97
68871;BME280;55906;52.278;6.808;2023-05-19T02:44:32;102522.03;;;9.01;76.73
68871;BME280;55906;52.278;6.808;2023-05-19T02:46:58;102520.94;;;8.97;76.87
68871;BME280;55906;52.278;6.808;2023-05-19T02:49:26;102518.13;;;8.94;77.81
68871;BME280;55906;52.278;6.808;2023-05-19T02:51:55;102517.94;;;8.91;77.05
68871;BME280;55906;52.278;6.808;2023-05-19T02:54:23;102517.84;;;8.89;77.38
68871;BME280;55906;52.278;6.808;2023-05-19T02:56:49;102522.94;;;8.86;77.84
68871;BME280;55906;52.278;6.808;2023-05-19T02:59:16;102515.88;;;8.85;78.98
68871;BME280;55906;52.278;6.808;2023-05-19T03:01:42;102524.56;;;8.84;78.21
68871;BME280;55906;52.278;6.808;2023-05-19T03:04:09;102522.75;;;8.83;78.44
68871;BME280;55906;52.278;6.808;2023-05-19T03:06:38;102526.19;;;8.82;78.88
68871;BME280;55906;52.278;6.808;2023-05-19T03:09:04;102520.75;;;8.79;78.31
68871;BME280;55906;52.278;6.808;2023-05-19T03:11:33;102519.03;;;8.80;78.28
68871;BME280;55906;52.278;6.808;2023-05-19T03:13:59;102519.66;;;8.76;78.68
68871;BME280;55906;52.278;6.808;2023-05-19T03:16:26;102521.38;;;8.75;78.09
68871;BME280;55906;52.278;6.808;2023-05-19T03:18:52;102524.81;;;8.74;78.78
68871;BME280;55906;52.278;6.808;2023-05-19T03:21:19;102527.34;;;8.73;78.65
68871;BME280;55906;52.278;6.808;2023-05-19T03:23:46;102519.41;;;8.71;78.55
68871;BME280;55906;52.278;6.808;2023-05-19T03:26:12;102518.50;;;8.71;78.10
68871;BME280;55906;52.278;6.808;2023-05-19T03:28:40;102524.63;;;8.71;78.36
68871;BME280;55906;52.278;6.808;2023-05-19T03:31:07;102520.22;;;8.70;78.36
68871;BME280;55906;52.278;6.808;2023-05-19T03:33:34;102521.84;;;8.68;78.30
68871;BME280;55906;52.278;6.808;2023-05-19T03:36:00;102519.84;;;8.64;78.27
68871;BME280;55906;52.278;6.808;2023-05-19T03:38:28;102516.31;;;8.63;78.67
68871;BME280;55906;52.278;6.808;2023-05-19T03:40:54;102521.56;;;8.63;78.77
68871;BME280;55906;52.278;6.808;2023-05-19T03:43:21;102523.38;;;8.64;78.75
68871;BME280;55906;52.278;6.808;2023-05-19T03:45:49;102522.56;;;8.65;78.92
68871;BME280;55906;52.278;6.808;2023-05-19T03:48:16;102525.19;;;8.65;78.91
68871;BME280;55906;52.278;6.808;2023-05-19T03:50:42;102526.91;;;8.65;78.65
68871;BME280;55906;52.278;6.808;2023-05-19T03:53:09;102519.94;;;8.65;78.74
68871;BME280;55906;52.278;6.808;2023-05-19T03:55:36;102523.47;;;8.66;78.65
68871;BME280;55906;52.278;6.808;2023-05-19T03:58:02;102533.13;;;8.67;79.13
68871;BME280;55906;52.278;6.808;2023-05-19T04:00:29;102520.03;;;8.67;78.91
68871;BME280;55906;52.278;6.808;2023-05-19T04:02:57;102526.19;;;8.68;77.82
68871;BME280;55906;52.278;6.808;2023-05-19T04:05:24;102531.41;;;8.68;78.88
68871;BME280;55906;52.278;6.808;2023-05-19T04:07:51;102530.69;;;8.70;79.07
68871;BME280;55906;52.278;6.808;2023-05-19T04:10:18;102531.69;;;8.72;78.62
68871;BME280;55906;52.278;6.808;2023-05-19T04:12:45;102534.50;;;8.75;78.57
68871;BME280;55906;52.278;6.808;2023-05-19T04:15:12;102540.47;;;8.73;79.50
68871;BME280;55906;52.278;6.808;2023-05-19T04:17:39;102545.00;;;8.75;78.94
68871;BME280;55906;52.278;6.808;2023-05-19T04:20:08;102546.00;;;8.77;79.01
68871;BME280;55906;52.278;6.808;2023-05-19T04:22:35;102544.47;;;8.81;78.84
68871;BME280;55906;52.278;6.808;2023-05-19T04:25:01;102531.63;;;8.85;78.35
68871;BME280;55906;52.278;6.808;2023-05-19T04:27:29;102539.75;;;8.90;77.70
68871;BME280;55906;52.278;6.808;2023-05-19T04:30:01;102540.75;;;8.92;77.53
68871;BME280;55906;52.278;6.808;2023-05-19T04:32:28;102543.66;;;8.96;78.18
68871;BME280;55906;52.278;6.808;2023-05-19T04:34:55;102545.47;;;8.97;78.25
68871;BME280;55906;52.278;6.808;2023-05-19T04:37:24;102545.81;;;9.04;77.93
68871;BME280;55906;52.278;6.808;2023-05-19T04:39:51;102541.47;;;9.04;78.23
68871;BME280;55906;52.278;6.808;2023-05-19T04:42:18;102538.13;;;9.07;78.05
68871;BME280;55906;52.278;6.808;2023-05-19T04:44:45;102545.41;;;9.11;78.43
68871;BME280;55906;52.278;6.808;2023-05-19T04:47:13;102546.59;;;9.16;77.94
68871;BME280;55906;52.278;6.808;2023-05-19T04:49:40;102546.75;;;9.19;77.62
68871;BME280;55906;52.278;6.808;2023-05-19T04:52:08;102538.25;;;9.23;77.55
68871;BME280;55906;52.278;6.808;2023-05-19T04:54:38;102541.06;;;9.26;77.65
68871;BME280;55906;52.278;6.808;2023-05-19T04:57:06;102537.78;;;9.30;77.61
68871;BME280;55906;52.278;6.808;2023-05-19T04:59:32;102545.94;;;9.35;77.91
68871;BME280;55906;52.278;6.808;2023-05-19T05:01:59;102548.81;;;9.39;77.93
68871;BME280;55906;52.278;6.808;2023-05-19T05:04:26;102546.53;;;9.45;77.55
68871;BME280;55906;52.278;6.808;2023-05-19T05:06:52;102541.56;;;9.50;78.37
68871;BME280;55906;52.278;6.808;2023-05-19T05:09:19;102542.00;;;9.57;77.43
68871;BME280;55906;52.278;6.808;2023-05-19T05:11:49;102537.16;;;9.65;77.08
68871;BME280;55906;52.278;6.808;2023-05-19T05:14:16;102540.22;;;9.73;77.39
68871;BME280;55906;52.278;6.808;2023-05-19T05:16:43;102537.94;;;9.79;76.94
68871;BME280;55906;52.278;6.808;2023-05-19T05:19:11;102534.81;;;9.86;76.48
68871;BME280;55906;52.278;6.808;2023-05-19T05:21:38;102544.03;;;9.94;76.25
68871;BME280;55906;52.278;6.808;2023-05-19T05:24:07;102538.31;;;10.01;76.47
68871;BME280;55906;52.278;6.808;2023-05-19T05:26:34;102527.38;;;10.10;75.78
68871;BME280;55906;52.278;6.808;2023-05-19T05:29:03;102526.34;;;10.22;75.37
68871;BME280;55906;52.278;6.808;2023-05-19T05:31:29;102524.22;;;10.32;75.15
68871;BME280;55906;52.278;6.808;2023-05-19T05:33:57;102528.34;;;10.43;74.77
68871;BME280;55906;52.278;6.808;2023-05-19T05:36:26;102532.28;;;10.51;74.67
68871;BME280;55906;52.278;6.808;2023-05-19T05:38:53;102528.34;;;10.59;74.33
68871;BME280;55906;52.278;6.808;2023-05-19T05:41:19;102534.91;;;10.67;74.25
68871;BME280;55906;52.278;6.808;2023-05-19T05:43:47;102527.66;;;10.79;73.98
68871;BME280;55906;52.278;6.808;2023-05-19T05:46:15;102536.19;;;10.92;73.75
68871;BME280;55906;52.278;6.808;2023-05-19T05:48:42;102530.63;;;11.03;72.69
68871;BME280;55906;52.278;6.808;2023-05-19T05:51:09;102538.09;;;11.12;72.31
68871;BME280;55906;52.278;6.808;2023-05-19T05:53:40;102532.38;;;11.20;72.69
68871;BME280;55906;52.278;6.808;2023-05-19T05:56:09;102530.34;;;11.33;71.73
68871;BME280;55906;52.278;6.808;2023-05-19T05:58:36;102524.63;;;11.41;71.42
68871;BME280;55906;52.278;6.808;2023-05-19T06:01:05;102527.88;;;11.53;71.30
68871;BME280;55906;52.278;6.808;2023-05-19T06:03:36;102529.28;;;11.65;70.84
68871;BME280;55906;52.278;6.808;2023-05-19T06:06:03;102529.19;;;11.79;70.67
68871;BME280;55906;52.278;6.808;2023-05-19T06:08:30;102530.66;;;11.92;70.42
68871;BME280;55906;52.278;6.808;2023-05-19T06:10:56;102526.94;;;12.06;70.04
68871;BME280;55906;52.278;6.808;2023-05-19T06:13:23;102531.81;;;12.16;70.06
68871;BME280;55906;52.278;6.808;2023-05-19T06:15:50;102528.13;;;12.32;69.33
68871;BME280;55906;52.278;6.808;2023-05-19T06:18:17;102537.72;;;12.49;68.64
68871;BME280;55906;52.278;6.808;2023-05-19T06:20:45;102531.44;;;12.67;68.17
68871;BME280;55906;52.278;6.808;2023-05-19T06:23:12;102536.63;;;12.85;67.81
68871;BME280;55906;52.278;6.808;2023-05-19T06:25:38;102536.19;;;12.95;66.85
68871;BME280;55906;52.278;6.808;2023-05-19T06:28:05;102536.72;;;13.07;66.61
68871;BME280;55906;52.278;6.808;2023-05-19T06:30:32;102532.91;;;13.20;66.58
68871;BME280;55906;52.278;6.808;2023-05-19T06:32:59;102532.38;;;13.28;65.73
68871;BME280;55906;52.278;6.808;2023-05-19T06:35:25;102535.41;;;13.37;65.58
68871;BME280;55906;52.278;6.808;2023-05-19T06:37:53;102544.63;;;13.47;65.41
68871;BME280;55906;52.278;6.808;2023-05-19T06:40:21;102538.69;;;13.53;64.88
68871;BME280;55906;52.278;6.808;2023-05-19T06:42:47;102539.66;;;13.55;64.89
68871;BME280;55906;52.278;6.808;2023-05-19T06:45:14;102543.75;;;13.69;64.66
68871;BME280;55906;52.278;6.808;2023-05-19T06:47:40;102540.56;;;13.77;64.23
68871;BME280;55906;52.278;6.808;2023-05-19T06:50:09;102546.16;;;13.85;63.84
68871;BME280;55906;52.278;6.808;2023-05-19T06:52:36;102537.69;;;13.94;63.65
68871;BME280;55906;52.278;6.808;2023-05-19T06:55:05;102543.25;;;14.01;63.26
68871;BME280;55906;52.278;6.808;2023-05-19T06:57:32;102549.81;;;14.11;63.41
68871;BME280;55906;52.278;6.808;2023-05-19T06:59:59;102535.84;;;14.15;63.48
68871;BME280;55906;52.278;6.808;2023-05-19T07:02:25;102539.81;;;14.26;62.93
68871;BME280;55906;52.278;6.808;2023-05-19T07:04:52;102529.41;;;14.31;62.57
68871;BME280;55906;52.278;6.808;2023-05-19T07:07:18;102536.50;;;14.54;62.27
68871;BME280;55906;52.278;6.808;2023-05-19T07:09:45;102534.56;;;14.74;61.85
68871;BME280;55906;52.278;6.808;2023-05-19T07:12:13;102546.59;;;14.90;61.12
68871;BME280;55906;52.278;6.808;2023-05-19T07:14:40;102536.47;;;15.03;60.50
68871;BME280;55906;52.278;6.808;2023-05-19T07:17:06;102535.09;;;15.15;60.36
68871;BME280;55906;52.278;6.808;2023-05-19T07:19:33;102530.22;;;15.27;59.64
68871;BME280;55906;52.278;6.808;2023-05-19T07:22:00;102530.63;;;15.39;59.25
68871;BME280;55906;52.278;6.808;2023-05-19T07:24:26;102528.41;;;15.53;58.52
68871;BME280;55906;52.278;6.808;2023-05-19T07:26:54;102531.16;;;15.56;57.75
68871;BME280;55906;52.278;6.808;2023-05-19T07:29:22;102517.03;;;15.57;57.41
68871;BME280;55906;52.278;6.808;2023-05-19T07:31:49;102520.56;;;15.56;56.73
68871;BME280;55906;52.278;6.808;2023-05-19T07:34:18;102521.28;;;15.77;57.20
68871;BME280;55906;52.278;6.808;2023-05-19T07:36:45;102517.88;;;15.81;56.72
68871;BME280;55906;52.278;6.808;2023-05-19T07:39:12;102525.47;;;15.97;55.87
68871;BME280;55906;52.278;6.808;2023-05-19T07:41:39;102524.94;;;16.09;55.90
68871;BME280;55906;52.278;6.808;2023-05-19T07:44:06;102524.44;;;16.22;55.94
68871;BME280;55906;52.278;6.808;2023-05-19T07:46:34;102525.06;;;16.44;55.37
68871;BME280;55906;52.278;6.808;2023-05-19T07:49:00;102526.13;;;16.50;54.54
68871;BME280;55906;52.278;6.808;2023-05-19T07:51:27;102523.81;;;16.62;53.83
68871;BME280;55906;52.278;6.808;2023-05-19T07:53:53;102527.31;;;16.61;52.49
68871;BME280;55906;52.278;6.808;2023-05-19T07:56:20;102525.53;;;16.60;53.52
68871;BME280;55906;52.278;6.808;2023-05-19T07:58:47;102519.72;;;16.74;53.55
68871;BME280;55906;52.278;6.808;2023-05-19T08:01:14;102516.72;;;16.93;52.25
68871;BME280;55906;52.278;6.808;2023-05-19T08:03:42;102526.31;;;16.88;51.16
68871;BME280;55906;52.278;6.808;2023-05-19T08:06:09;102520.50;;;17.01;51.88
68871;BME280;55906;52.278;6.808;2023-05-19T08:08:35;102518.53;;;16.94;51.23
68871;BME280;55906;52.278;6.808;2023-05-19T08:11:02;102520.03;;;17.17;50.56
68871;BME280;55906;52.278;6.808;2023-05-19T08:13:29;102511.78;;;17.07;49.51
68871;BME280;55906;52.278;6.808;2023-05-19T08:15:56;102513.06;;;17.22;50.51
68871;BME280;55906;52.278;6.808;2023-05-19T08:18:24;102512.22;;;17.25;48.88
68871;BME280;55906;52.278;6.808;2023-05-19T08:20:52;102509.28;;;17.49;48.82
68871;BME280;55906;52.278;6.808;2023-05-19T08:23:18;102508.25;;;17.80;48.71
68871;BME280;55906;52.278;6.808;2023-05-19T08:25:45;102505.94;;;17.95;47.08
68871;BME280;55906;52.278;6.808;2023-05-19T08:28:12;102501.75;;;18.08;47.47
68871;BME280;55906;52.278;6.808;2023-05-19T08:30:38;102503.63;;;18.12;46.49
68871;BME280;55906;52.278;6.808;2023-05-19T08:33:05;102496.03;;;18.30;46.91
68871;BME280;55906;52.278;6.808;2023-05-19T08:35:32;102502.41;;;18.37;46.17
68871;BME280;55906;52.278;6.808;2023-05-19T08:38:00;102492.16;;;18.58;46.18
68871;BME280;55906;52.278;6.808;2023-05-19T08:40:27;102484.53;;;18.76;44.88
68871;BME280;55906;52.278;6.808;2023-05-19T08:42:55;102480.06;;;18.75;43.66
68871;BME280;55906;52.278;6.808;2023-05-19T08:45:22;102484.00;;;18.97;44.02
68871;BME280;55906;52.278;6.808;2023-05-19T08:47:49;102485.06;;;19.07;42.97
68871;BME280;55906;52.278;6.808;2023-05-19T08:50:20;102471.88;;;19.16;42.66
68871;BME280;55906;52.278;6.808;2023-05-19T08:52:52;102475.34;;;19.63;41.73
68871;BME280;55906;52.278;6.808;2023-05-19T08:55:31;102477.53;;;19.92;41.18
68871;BME280;55906;52.278;6.808;2023-05-19T08:57:59;102468.13;;;20.24;40.53
68871;BME280;55906;52.278;6.808;2023-05-19T09:00:27;102464.16;;;20.66;39.33
68871;BME280;55906;52.278;6.808;2023-05-19T09:02:55;102465.44;;;21.06;40.02
68871;BME280;55906;52.278;6.808;2023-05-19T09:05:22;102458.56;;;21.37;39.36
68871;BME280;55906;52.278;6.808;2023-05-19T09:07:49;102449.91;;;21.81;38.22
68871;BME280;55906;52.278;6.808;2023-05-19T09:10:15;102450.94;;;22.07;37.97
68871;BME280;55906;52.278;6.808;2023-05-19T09:12:45;102451.91;;;22.18;35.31
68871;BME280;55906;52.278;6.808;2023-05-19T09:15:15;102456.53;;;22.83;35.71
68871;BME280;55906;52.278;6.808;2023-05-19T09:17:44;102451.16;;;23.23;33.96
68871;BME280;55906;52.278;6.808;2023-05-19T09:20:12;102440.41;;;23.53;34.80
68871;BME280;55906;52.278;6.808;2023-05-19T09:22:41;102434.81;;;24.13;34.73
68871;BME280;55906;52.278;6.808;2023-05-19T09:25:19;102436.19;;;24.85;32.65
68871;BME280;55906;52.278;6.808;2023-05-19T09:27:49;102435.97;;;25.13;33.12
68871;BME280;55906;52.278;6.808;2023-05-19T09:30:16;102447.25;;;25.55;32.32
68871;BME280;55906;52.278;6.808;2023-05-19T09:32:43;102439.03;;;25.64;31.84
68871;BME280;55906;52.278;6.808;2023-05-19T09:35:10;102424.00;;;25.43;29.17
68871;BME280;55906;52.278;6.808;2023-05-19T09:37:42;102436.22;;;25.77;31.37
68871;BME280;55906;52.278;6.808;2023-05-19T09:40:12;102418.56;;;26.23;29.59
68871;BME280;55906;52.278;6.808;2023-05-19T09:42:41;102421.84;;;26.46;27.75
68871;BME280;55906;52.278;6.808;2023-05-19T09:45:10;102427.59;;;26.80;28.27
68871;BME280;55906;52.278;6.808;2023-05-19T09:47:37;102419.22;;;26.97;27.79
68871;BME280;55906;52.278;6.808;2023-05-19T09:50:08;102420.69;;;27.18;27.78
68871;BME280;55906;52.278;6.808;2023-05-19T09:52:35;102425.34;;;27.57;27.60
68871;BME280;55906;52.278;6.808;2023-05-19T09:55:03;102428.06;;;28.02;26.84
68871;BME280;55906;52.278;6.808;2023-05-19T09:57:34;102429.28;;;28.29;24.90
68871;BME280;55906;52.278;6.808;2023-05-19T10:00:05;102426.50;;;27.46;26.53
68871;BME280;55906;52.278;6.808;2023-05-19T10:02:42;102420.38;;;27.82;26.00
68871;BME280;55906;52.278;6.808;2023-05-19T10:05:13;102418.94;;;28.46;25.24
68871;BME280;55906;52.278;6.808;2023-05-19T10:07:42;102421.38;;;28.58;25.38
68871;BME280;55906;52.278;6.808;2023-05-19T10:10:11;102418.38;;;27.90;25.00
68871;BME280;55906;52.278;6.808;2023-05-19T10:12:39;102407.09;;;27.70;25.99
68871;BME280;55906;52.278;6.808;2023-05-19T10:15:11;102412.31;;;28.19;24.70
68871;BME280;55906;52.278;6.808;2023-05-19T10:17:41;102405.38;;;27.66;25.79
68871;BME280;55906;52.278;6.808;2023-05-19T10:20:09;102407.09;;;27.21;25.07
68871;BME280;55906;52.278;6.808;2023-05-19T10:22:37;102408.41;;;26.97;25.51
68871;BME280;55906;52.278;6.808;2023-05-19T10:25:04;102399.50;;;26.92;25.19
68871;BME280;55906;52.278;6.808;2023-05-19T10:27:33;102405.47;;;27.61;24.38
68871;BME280;55906;52.278;6.808;2023-05-19T10:30:06;102396.78;;;27.89;24.48
68871;BME280;55906;52.278;6.808;2023-05-19T10:32:34;102395.78;;;28.33;24.53
68871;BME280;55906;52.278;6.808;2023-05-19T10:35:19;102389.00;;;28.52;23.30
68871;BME280;55906;52.278;6.808;2023-05-19T10:37:54;102391.81;;;28.86;22.84
68871;BME280;55906;52.278;6.808;2023-05-19T10:40:26;102383.81;;;29.16;21.39
68871;BME280;55906;52.278;6.808;2023-05-19T10:43:04;102371.31;;;29.10;21.86
68871;BME280;55906;52.278;6.808;2023-05-19T10:45:36;102380.97;;;29.53;22.75
68871;BME280;55906;52.278;6.808;2023-05-19T10:48:09;102376.31;;;29.58;22.61
68871;BME280;55906;52.278;6.808;2023-05-19T10:50:38;102372.78;;;29.22;23.21
68871;BME280;55906;52.278;6.808;2023-05-19T10:53:13;102366.97;;;27.90;22.68
68871;BME280;55906;52.278;6.808;2023-05-19T10:55:46;102366.97;;;28.30;23.27
68871;BME280;55906;52.278;6.808;2023-05-19T10:58:37;102368.44;;;28.81;22.56
68871;BME280;55906;52.278;6.808;2023-05-19T11:01:07;102361.13;;;28.86;22.88
68871;BME280;55906;52.278;6.808;2023-05-19T11:03:45;102374.13;;;29.38;21.13
68871;BME280;55906;52.278;6.808;2023-05-19T11:06:21;102369.31;;;29.80;20.98
68871;BME280;55906;52.278;6.808;2023-05-19T11:08:55;102376.06;;;29.66;20.68
68871;BME280;55906;52.278;6.808;2023-05-19T11:11:23;102367.81;;;29.70;21.98
68871;BME280;55906;52.278;6.808;2023-05-19T11:13:51;102359.22;;;30.43;20.88
68871;BME280;55906;52.278;6.808;2023-05-19T11:16:25;102364.19;;;30.56;20.59
68871;BME280;55906;52.278;6.808;2023-05-19T11:18:53;102361.09;;;30.69;20.45
68871;BME280;55906;52.278;6.808;2023-05-19T11:21:21;102345.31;;;30.25;20.00
68871;BME280;55906;52.278;6.808;2023-05-19T11:23:49;102359.00;;;30.77;20.10
68871;BME280;55906;52.278;6.808;2023-05-19T11:26:38;102350.06;;;30.45;19.86
68871;BME280;55906;52.278;6.808;2023-05-19T11:29:06;102352.78;;;30.73;20.48
68871;BME280;55906;52.278;6.808;2023-05-19T11:31:34;102354.53;;;31.27;20.67
68871;BME280;55906;52.278;6.808;2023-05-19T11:34:02;102353.56;;;32.00;19.97
68871;BME280;55906;52.278;6.808;2023-05-19T11:36:32;102355.19;;;31.34;20.85
68871;BME280;55906;52.278;6.808;2023-05-19T11:39:03;102343.88;;;30.95;20.42
68871;BME280;55906;52.278;6.808;2023-05-19T11:41:30;102340.59;;;31.36;20.26
68871;BME280;55906;52.278;6.808;2023-05-19T11:43:57;102350.31;;;31.67;18.82
68871;BME280;55906;52.278;6.808;2023-05-19T11:46:24;102350.31;;;31.90;19.75
68871;BME280;55906;52.278;6.808;2023-05-19T11:48:52;102348.16;;;32.43;18.74
68871;BME280;55906;52.278;6.808;2023-05-19T11:51:20;102340.59;;;32.50;18.15
68871;BME280;55906;52.278;6.808;2023-05-19T11:53:49;102339.63;;;32.53;18.27
68871;BME280;55906;52.278;6.808;2023-05-19T11:56:18;102336.34;;;31.99;18.20
68871;BME280;55906;52.278;6.808;2023-05-19T11:58:45;102339.06;;;32.21;18.24
68871;BME280;55906;52.278;6.808;2023-05-19T12:01:12;102334.78;;;32.37;18.09
68871;BME280;55906;52.278;6.808;2023-05-19T12:03:39;102327.16;;;32.89;17.90
68871;BME280;55906;52.278;6.808;2023-05-19T12:06:05;102323.34;;;33.71;17.63
68871;BME280;55906;52.278;6.808;2023-05-19T12:08:34;102325.41;;;33.48;17.58
68871;BME280;55906;52.278;6.808;2023-05-19T12:11:03;102329.59;;;31.86;18.86
68871;BME280;55906;52.278;6.808;2023-05-19T12:13:29;102327.03;;;32.49;18.40
68871;BME280;55906;52.278;6.808;2023-05-19T12:15:58;102331.13;;;31.93;18.64
68871;BME280;55906;52.278;6.808;2023-05-19T12:18:28;102322.84;;;31.96;18.84
68871;BME280;55906;52.278;6.808;2023-05-19T12:20:54;102326.72;;;32.12;19.01
68871;BME280;55906;52.278;6.808;2023-05-19T12:23:22;102319.75;;;32.49;18.59
68871;BME280;55906;52.278;6.808;2023-05-19T12:25:49;102320.06;;;32.85;18.25
68871;BME280;55906;52.278;6.808;2023-05-19T12:28:18;102334.00;;;32.12;18.83
68871;BME280;55906;52.278;6.808;2023-05-19T12:30:46;102325.72;;;32.37;18.00
68871;BME280;55906;52.278;6.808;2023-05-19T12:33:16;102319.22;;;33.03;18.02
68871;BME280;55906;52.278;6.808;2023-05-19T12:35:43;102309.59;;;33.15;17.48
68871;BME280;55906;52.278;6.808;2023-05-19T12:38:13;102322.34;;;33.15;17.08
68871;BME280;55906;52.278;6.808;2023-05-19T12:40:40;102319.13;;;33.46;17.30
68871;BME280;55906;52.278;6.808;2023-05-19T12:43:07;102303.72;;;33.45;16.94
68871;BME280;55906;52.278;6.808;2023-05-19T12:45:35;102307.38;;;33.04;17.58
68871;BME280;55906;52.278;6.808;2023-05-19T12:48:03;102301.22;;;34.51;16.01
68871;BME280;55906;52.278;6.808;2023-05-19T12:50:30;102309.84;;;35.13;15.93
68871;BME280;55906;52.278;6.808;2023-05-19T12:52:58;102300.44;;;35.01;15.82
68871;BME280;55906;52.278;6.808;2023-05-19T12:55:24;102309.28;;;35.23;15.35
68871;BME280;55906;52.278;6.808;2023-05-19T12:57:51;102303.09;;;35.53;15.71
68871;BME280;55906;52.278;6.808;2023-05-19T13:00:22;102300.75;;;35.94;15.31